Time;durP1;ratioP1;P1;durP2;ratioP2;P2;SDS_P1;SDS_P2;PMS_P1;PMS_P2;Temp;Humidity;BMP_temperature;BMP_pressure;BME280_temperature;BME280_humidity;BME280_pressure;Samples;Min_cycle;Max_cycle;Signal;HPM_P1;HPM_P2
2022/11/19 00:01:48;;;;;;;;;;;6.60;99.90;;;;;;4995864;28;20302;-71
2022/11/19 00:04:14;;;;;;;;;;;6.60;99.90;;;;;;4996006;28;19969;-71
2022/11/19 00:06:43;;;;;;;;;;;6.60;99.90;;;;;;4997859;28;20403;-70
2022/11/19 00:09:13;;;;;;;;;;;6.60;99.90;;;;;;4996779;28;19931;-71
2022/11/19 00:14:33;;;;;;;;;;;6.60;99.90;;;;;;4975599;28;20514;-70
2022/11/19 00:17:00;;;;;;;;;;;6.60;99.90;;;;;;4998280;28;19933;-71
2022/11/19 00:19:27;;;;;;;;;;;6.50;99.90;;;;;;4995091;28;20407;-71
2022/11/19 00:21:55;;;;;;;;;;;6.50;99.90;;;;;;4996873;28;19949;-71
2022/11/19 00:24:22;;;;;;;;;;;6.50;99.90;;;;;;4993136;28;19926;-70
2022/11/19 00:26:49;;;;;;;;;;;6.50;99.90;;;;;;4993405;28;19934;-71
2022/11/19 00:29:16;;;;;;;;;;;6.50;99.90;;;;;;4998553;28;19933;-71
2022/11/19 00:31:42;;;;;;;;;;;6.50;99.90;;;;;;4993567;28;20378;-70
2022/11/19 00:34:10;;;;;;;;;;;6.40;99.90;;;;;;4990806;28;19926;-70
2022/11/19 00:36:37;;;;;;;;;;;6.40;99.90;;;;;;4997382;28;19993;-71
2022/11/19 00:39:05;;;;;;;;;;;6.50;99.90;;;;;;4992862;28;19934;-71
2022/11/19 00:41:32;;;;;;;;;;;6.50;99.90;;;;;;4995084;28;20024;-70
2022/11/19 00:43:59;;;;;;;;;;;6.50;99.90;;;;;;4992993;28;19972;-70
2022/11/19 00:46:27;;;;;;;;;;;6.50;99.90;;;;;;4992451;28;19983;-71
2022/11/19 00:48:54;;;;;;;;;;;6.50;99.90;;;;;;4995580;28;19936;-70
2022/11/19 00:51:22;;;;;;;;;;;6.50;99.90;;;;;;4992689;28;19933;-70
2022/11/19 00:53:48;;;;;;;;;;;6.40;99.90;;;;;;4995622;28;19968;-71
2022/11/19 00:56:17;;;;;;;;;;;6.40;99.90;;;;;;4996963;28;19934;-71
2022/11/19 00:58:44;;;;;;;;;;;6.40;99.90;;;;;;4988701;28;19926;-70
2022/11/19 01:01:12;;;;;;;;;;;6.40;99.90;;;;;;4994996;28;19929;-71
2022/11/19 01:03:39;;;;;;;;;;;6.40;99.90;;;;;;4995678;28;19926;-71
2022/11/19 01:06:07;;;;;;;;;;;6.40;99.90;;;;;;5001435;28;19925;-70
2022/11/19 01:08:36;;;;;;;;;;;6.40;99.90;;;;;;5010660;28;19930;-70
2022/11/19 01:11:04;;;;;;;;;;;6.40;99.90;;;;;;4998162;28;20013;-70
2022/11/19 01:13:34;;;;;;;;;;;6.30;99.90;;;;;;4999203;28;19958;-70
2022/11/19 01:16:01;;;;;;;;;;;6.30;99.90;;;;;;4993007;28;20303;-70
2022/11/19 01:18:28;;;;;;;;;;;6.30;99.90;;;;;;4999158;28;19925;-71
2022/11/19 01:20:55;;;;;;;;;;;6.30;99.90;;;;;;4997661;28;19930;-71
2022/11/19 01:23:21;;;;;;;;;;;6.30;99.90;;;;;;5000091;28;19960;-70
2022/11/19 01:25:48;;;;;;;;;;;6.30;99.90;;;;;;4999660;28;20032;-70
2022/11/19 01:28:15;;;;;;;;;;;6.40;99.90;;;;;;4999722;28;19969;-70
2022/11/19 01:30:43;;;;;;;;;;;6.30;99.90;;;;;;4997243;28;20521;-70
2022/11/19 01:33:10;;;;;;;;;;;6.30;99.90;;;;;;4992023;28;19933;-71
2022/11/19 01:35:37;;;;;;;;;;;6.30;99.90;;;;;;5004862;28;19968;-70
2022/11/19 01:38:04;;;;;;;;;;;6.40;99.90;;;;;;4994256;28;19976;-70
2022/11/19 01:40:33;;;;;;;;;;;6.40;99.90;;;;;;4992537;28;20127;-70
2022/11/19 01:43:00;;;;;;;;;;;6.40;99.90;;;;;;4998897;28;19979;-71
2022/11/19 01:45:32;;;;;;;;;;;6.40;99.90;;;;;;4994830;28;20319;-70
2022/11/19 01:48:03;;;;;;;;;;;6.40;99.90;;;;;;5001568;28;20013;-70
2022/11/19 01:50:31;;;;;;;;;;;6.40;99.90;;;;;;4996958;28;19926;-70
2022/11/19 01:52:58;;;;;;;;;;;6.40;99.90;;;;;;4997952;28;19936;-70
2022/11/19 01:55:25;;;;;;;;;;;6.40;99.90;;;;;;5018244;28;20001;-70
2022/11/19 01:57:54;;;;;;;;;;;6.40;99.90;;;;;;4998452;28;20549;-71
2022/11/19 02:00:21;;;;;;;;;;;6.40;99.90;;;;;;4997150;28;19933;-70
2022/11/19 02:02:47;;;;;;;;;;;6.40;99.90;;;;;;5003301;28;19930;-70
2022/11/19 02:05:16;;;;;;;;;;;6.40;99.90;;;;;;4998563;28;20387;-71
2022/11/19 02:07:45;;;;;;;;;;;6.40;99.90;;;;;;5000407;28;19934;-71
2022/11/19 02:10:12;;;;;;;;;;;6.30;99.90;;;;;;4993515;28;19929;-71
2022/11/19 02:12:42;;;;;;;;;;;6.40;99.90;;;;;;4998253;28;19956;-70
2022/11/19 02:15:15;;;;;;;;;;;6.30;99.90;;;;;;4992988;28;20038;-70
2022/11/19 02:17:48;;;;;;;;;;;6.30;99.90;;;;;;4997813;28;20501;-71
2022/11/19 02:20:33;;;;;;;;;;;6.30;99.90;;;;;;4997601;28;19933;-70
2022/11/19 02:23:12;;;;;;;;;;;6.20;99.90;;;;;;4995385;28;20355;-70
2022/11/19 02:25:48;;;;;;;;;;;6.20;99.90;;;;;;4991640;28;19947;-70
2022/11/19 02:28:25;;;;;;;;;;;6.20;99.90;;;;;;4999977;28;19925;-70
2022/11/19 02:30:56;;;;;;;;;;;6.10;99.90;;;;;;4997163;28;20020;-71
2022/11/19 02:33:26;;;;;;;;;;;6.30;99.90;;;;;;4995264;28;20266;-70
2022/11/19 02:35:56;;;;;;;;;;;6.10;99.90;;;;;;4994530;28;19944;-70
2022/11/19 02:38:26;;;;;;;;;;;6.10;99.90;;;;;;5001811;28;20407;-70
2022/11/19 02:40:56;;;;;;;;;;;6.20;99.90;;;;;;4994798;28;19952;-71
2022/11/19 02:43:25;;;;;;;;;;;6.20;99.90;;;;;;4995307;28;20048;-70
2022/11/19 02:45:56;;;;;;;;;;;6.20;99.90;;;;;;4998459;28;19931;-70
2022/11/19 02:48:25;;;;;;;;;;;6.10;99.90;;;;;;4999941;28;19968;-70
2022/11/19 02:50:57;;;;;;;;;;;6.10;99.90;;;;;;4997055;28;19953;-70
2022/11/19 02:53:24;;;;;;;;;;;6.10;99.90;;;;;;5000401;28;19925;-70
2022/11/19 03:06:44;;;;;;;;;;;6.00;99.90;;;;;;5001160;28;19933;-70
2022/11/19 03:09:11;;;;;;;;;;;6.00;99.90;;;;;;4998044;28;19925;-70
2022/11/19 03:11:38;;;;;;;;;;;6.10;99.90;;;;;;5003530;28;19960;-71
2022/11/19 03:16:57;;;;;;;;;;;6.10;99.90;;;;;;5002888;28;20450;-71
2022/11/19 03:19:30;;;;;;;;;;;6.10;99.90;;;;;;5000744;28;20008;-71
2022/11/19 03:21:59;;;;;;;;;;;6.10;99.90;;;;;;4999867;28;19933;-70
2022/11/19 03:24:28;;;;;;;;;;;6.10;99.90;;;;;;5004732;28;19933;-71
2022/11/19 03:26:57;;;;;;;;;;;6.10;99.90;;;;;;4999117;28;20371;-70
2022/11/19 03:29:26;;;;;;;;;;;6.00;99.90;;;;;;4997825;28;19925;-71
2022/11/19 03:31:58;;;;;;;;;;;6.00;99.90;;;;;;4993480;28;19930;-71
2022/11/19 03:34:29;;;;;;;;;;;6.00;99.90;;;;;;4993993;28;20347;-71
2022/11/19 03:36:58;;;;;;;;;;;6.10;99.90;;;;;;4997389;28;19949;-71
2022/11/19 03:39:25;;;;;;;;;;;6.00;99.90;;;;;;5001856;28;19929;-71
2022/11/19 03:41:53;;;;;;;;;;;6.00;99.90;;;;;;4998239;28;20300;-71
2022/11/19 03:44:21;;;;;;;;;;;6.00;99.90;;;;;;4992254;28;19965;-71
2022/11/19 03:46:51;;;;;;;;;;;6.00;99.90;;;;;;4994634;28;19935;-71
2022/11/19 03:49:20;;;;;;;;;;;5.90;99.90;;;;;;4995940;28;19972;-71
2022/11/19 03:51:50;;;;;;;;;;;5.90;99.90;;;;;;4993261;28;19952;-71
2022/11/19 03:54:17;;;;;;;;;;;5.90;99.90;;;;;;4990333;28;20312;-71
2022/11/19 03:56:44;;;;;;;;;;;6.00;99.90;;;;;;5000581;28;20012;-71
2022/11/19 03:59:11;;;;;;;;;;;5.90;99.90;;;;;;4996943;28;19930;-71
2022/11/19 04:01:38;;;;;;;;;;;6.00;99.90;;;;;;4994057;28;20022;-71
2022/11/19 04:06:51;;;;;;;;;;;5.90;99.90;;;;;;4994731;28;19934;-71
2022/11/19 04:09:18;;;;;;;;;;;5.90;99.90;;;;;;4991192;28;20008;-70
2022/11/19 04:11:45;;;;;;;;;;;5.90;99.90;;;;;;4995108;28;20387;-71
2022/11/19 04:14:11;;;;;;;;;;;5.90;99.90;;;;;;4994410;28;19926;-71
2022/11/19 04:16:38;;;;;;;;;;;5.90;99.90;;;;;;4994302;28;20009;-71
2022/11/19 04:19:05;;;;;;;;;;;5.90;99.90;;;;;;4995075;28;20554;-71
2022/11/19 04:21:32;;;;;;;;;;;5.90;99.90;;;;;;5011942;28;20517;-70
2022/11/19 04:24:00;;;;;;;;;;;5.90;99.90;;;;;;4996537;28;19932;-70
2022/11/19 04:26:27;;;;;;;;;;;5.90;99.90;;;;;;4997972;28;19963;-71
2022/11/19 04:28:54;;;;;;;;;;;5.90;99.90;;;;;;4985798;28;19933;-71
2022/11/19 04:31:21;;;;;;;;;;;5.90;99.90;;;;;;4991529;28;20012;-71
2022/11/19 04:33:47;;;;;;;;;;;5.90;99.90;;;;;;4993464;28;19933;-71
2022/11/19 04:36:14;;;;;;;;;;;5.90;99.90;;;;;;4995558;28;19965;-71
2022/11/19 04:38:41;;;;;;;;;;;5.90;99.90;;;;;;4989233;28;19934;-71
2022/11/19 04:41:10;;;;;;;;;;;5.90;99.90;;;;;;5013344;28;19926;-71
2022/11/19 04:43:36;;;;;;;;;;;5.90;99.90;;;;;;4993471;28;20024;-71
2022/11/19 04:46:03;;;;;;;;;;;5.90;99.90;;;;;;4996045;28;20011;-70
2022/11/19 04:48:30;;;;;;;;;;;5.90;99.90;;;;;;4991848;28;19931;-70
2022/11/19 04:50:57;;;;;;;;;;;5.90;99.90;;;;;;4990728;28;19977;-70
2022/11/19 04:53:23;;;;;;;;;;;5.90;99.90;;;;;;4998215;28;19940;-71
2022/11/19 04:55:50;;;;;;;;;;;5.90;99.90;;;;;;4991925;28;20386;-71
2022/11/19 04:58:18;;;;;;;;;;;5.90;99.90;;;;;;4995131;28;19988;-71
2022/11/19 05:00:45;;;;;;;;;;;5.90;99.90;;;;;;4998003;28;19939;-71
2022/11/19 05:03:12;;;;;;;;;;;5.90;99.90;;;;;;4994681;28;20178;-71
2022/11/19 05:05:39;;;;;;;;;;;5.90;99.90;;;;;;5000181;28;19929;-71
2022/11/19 05:08:06;;;;;;;;;;;5.90;99.90;;;;;;5000297;28;19930;-71
2022/11/19 05:10:33;;;;;;;;;;;5.90;99.90;;;;;;4994393;28;19930;-71
2022/11/19 05:12:59;;;;;;;;;;;5.90;99.90;;;;;;4995183;28;20016;-71
2022/11/19 05:15:28;;;;;;;;;;;5.90;99.90;;;;;;5000706;28;20012;-71
2022/11/19 05:17:54;;;;;;;;;;;5.90;99.90;;;;;;4993663;28;20024;-70
2022/11/19 05:20:21;;;;;;;;;;;5.90;99.90;;;;;;5003044;28;19925;-71
2022/11/19 05:22:48;;;;;;;;;;;5.90;99.90;;;;;;4996313;28;19925;-71
2022/11/19 05:25:15;;;;;;;;;;;5.90;99.90;;;;;;4994776;28;20020;-71
2022/11/19 05:27:42;;;;;;;;;;;5.90;99.90;;;;;;4994856;28;20303;-71
2022/11/19 05:30:09;;;;;;;;;;;5.90;99.90;;;;;;4995977;28;19960;-70
2022/11/19 05:32:37;;;;;;;;;;;5.90;99.90;;;;;;4997331;28;19929;-71
2022/11/19 05:35:05;;;;;;;;;;;5.90;99.90;;;;;;4989726;28;19948;-70
2022/11/19 05:37:31;;;;;;;;;;;5.90;99.90;;;;;;4995641;28;19940;-70
2022/11/19 05:39:58;;;;;;;;;;;5.90;99.90;;;;;;4997272;28;19925;-71
2022/11/19 05:42:25;;;;;;;;;;;5.90;99.90;;;;;;4993283;28;19925;-71
2022/11/19 05:44:55;;;;;;;;;;;5.90;99.90;;;;;;4989095;28;20426;-71
2022/11/19 05:47:21;;;;;;;;;;;5.90;99.90;;;;;;4995881;28;19972;-71
2022/11/19 05:49:49;;;;;;;;;;;5.90;99.90;;;;;;4994082;28;20042;-71
2022/11/19 05:52:16;;;;;;;;;;;5.90;99.90;;;;;;4993513;28;19925;-72
2022/11/19 05:54:43;;;;;;;;;;;6.00;99.90;;;;;;4992069;28;19925;-71
2022/11/19 05:57:10;;;;;;;;;;;5.90;99.90;;;;;;4990189;28;19932;-71
2022/11/19 05:59:37;;;;;;;;;;;6.00;99.90;;;;;;4994845;28;19996;-71
2022/11/19 06:02:04;;;;;;;;;;;6.00;99.90;;;;;;4991128;28;19952;-71
2022/11/19 06:04:31;;;;;;;;;;;6.00;99.90;;;;;;4991406;28;19926;-71
2022/11/19 06:06:59;;;;;;;;;;;6.00;99.90;;;;;;4993804;28;20082;-70
2022/11/19 06:09:26;;;;;;;;;;;6.00;99.90;;;;;;4993044;28;19934;-70
2022/11/19 06:11:53;;;;;;;;;;;5.90;99.90;;;;;;4994642;28;19936;-70
2022/11/19 06:14:21;;;;;;;;;;;5.90;99.90;;;;;;4993603;28;19933;-71
2022/11/19 06:16:48;;;;;;;;;;;5.90;99.90;;;;;;4992576;28;20008;-70
2022/11/19 06:19:15;;;;;;;;;;;5.90;99.90;;;;;;4987821;28;19946;-71
2022/11/19 06:21:41;;;;;;;;;;;5.90;99.90;;;;;;4989854;28;20295;-71
2022/11/19 06:24:10;;;;;;;;;;;5.90;99.90;;;;;;4990683;28;20168;-71
2022/11/19 06:26:36;;;;;;;;;;;5.90;99.90;;;;;;4990041;28;19939;-71
2022/11/19 06:29:03;;;;;;;;;;;5.90;99.90;;;;;;5008061;28;20976;-71
2022/11/19 06:31:30;;;;;;;;;;;5.90;99.90;;;;;;4993716;28;19937;-71
2022/11/19 06:33:57;;;;;;;;;;;5.90;99.90;;;;;;4997696;28;19984;-71
2022/11/19 06:36:24;;;;;;;;;;;5.90;99.90;;;;;;4989787;28;19926;-71
2022/11/19 06:38:51;;;;;;;;;;;5.90;99.90;;;;;;4994456;28;19929;-71
2022/11/19 06:41:19;;;;;;;;;;;6.00;99.90;;;;;;4990498;28;19933;-71
2022/11/19 06:43:46;;;;;;;;;;;6.00;99.90;;;;;;4998890;28;20007;-71
2022/11/19 06:46:13;;;;;;;;;;;6.00;99.90;;;;;;5012765;28;19934;-71
2022/11/19 06:48:40;;;;;;;;;;;6.00;99.90;;;;;;4998176;28;20003;-71
2022/11/19 06:51:07;;;;;;;;;;;5.90;99.90;;;;;;4994185;28;20548;-71
2022/11/19 06:53:34;;;;;;;;;;;6.00;99.90;;;;;;4994154;28;20012;-70
2022/11/19 06:56:02;;;;;;;;;;;6.00;99.90;;;;;;4998054;28;19933;-71
2022/11/19 06:58:30;;;;;;;;;;;6.00;99.90;;;;;;4997424;28;19933;-71
2022/11/19 07:00:57;;;;;;;;;;;5.90;99.90;;;;;;4996191;28;19964;-71
2022/11/19 07:03:25;;;;;;;;;;;5.90;99.90;;;;;;5001027;28;19932;-71
2022/11/19 07:05:55;;;;;;;;;;;5.90;99.90;;;;;;5003011;28;20403;-70
2022/11/19 07:08:23;;;;;;;;;;;5.90;99.90;;;;;;4981995;28;20019;-71
2022/11/19 07:10:50;;;;;;;;;;;5.90;99.90;;;;;;4995868;28;19941;-71
2022/11/19 07:13:16;;;;;;;;;;;5.90;99.90;;;;;;4988531;28;19925;-70
2022/11/19 07:15:45;;;;;;;;;;;5.90;99.90;;;;;;4981939;28;19934;-71
2022/11/19 07:18:12;;;;;;;;;;;5.90;99.90;;;;;;4990445;28;19939;-71
2022/11/19 07:20:40;;;;;;;;;;;5.90;99.90;;;;;;4993436;28;19934;-71
2022/11/19 07:23:09;;;;;;;;;;;5.90;99.90;;;;;;4996691;28;19925;-70
2022/11/19 07:25:36;;;;;;;;;;;5.90;99.90;;;;;;4997055;28;20005;-71
2022/11/19 07:28:03;;;;;;;;;;;6.00;99.90;;;;;;4992167;28;20020;-70
2022/11/19 07:30:30;;;;;;;;;;;6.00;99.90;;;;;;4995317;28;20395;-70
2022/11/19 07:32:58;;;;;;;;;;;5.90;99.90;;;;;;4989318;28;19933;-71
2022/11/19 07:35:25;;;;;;;;;;;5.90;99.90;;;;;;4978687;28;19940;-71
2022/11/19 07:37:53;;;;;;;;;;;5.90;99.90;;;;;;4961378;28;22634;-71
2022/11/19 07:40:22;;;;;;;;;;;5.80;99.90;;;;;;4981192;28;19930;-71
2022/11/19 07:42:48;;;;;;;;;;;5.80;99.90;;;;;;4991725;28;19968;-70
2022/11/19 07:45:16;;;;;;;;;;;5.80;99.90;;;;;;4986530;28;19965;-71
2022/11/19 07:47:43;;;;;;;;;;;5.80;99.90;;;;;;4982208;28;20467;-71
2022/11/19 07:50:14;;;;;;;;;;;5.80;99.90;;;;;;4984542;28;20415;-71
2022/11/19 07:52:41;;;;;;;;;;;5.80;99.90;;;;;;4988946;28;19987;-71
2022/11/19 07:55:09;;;;;;;;;;;5.80;99.90;;;;;;4998487;28;19926;-70
2022/11/19 07:57:35;;;;;;;;;;;5.80;99.90;;;;;;4986775;28;20021;-71
2022/11/19 08:00:02;;;;;;;;;;;5.90;99.90;;;;;;5008619;28;19937;-71
2022/11/19 08:02:39;;;;;;;;;;;5.80;99.90;;;;;;4994867;28;19929;-71
2022/11/19 08:05:06;;;;;;;;;;;5.80;99.90;;;;;;4992423;28;19932;-71
2022/11/19 08:07:36;;;;;;;;;;;5.80;99.90;;;;;;4990157;28;20014;-70
2022/11/19 08:10:05;;;;;;;;;;;5.80;99.90;;;;;;4998039;28;19933;-71
2022/11/19 08:12:32;;;;;;;;;;;5.80;99.90;;;;;;4993962;28;19934;-71
2022/11/19 08:14:59;;;;;;;;;;;5.80;99.90;;;;;;4993942;28;20024;-71
2022/11/19 08:20:13;;;;;;;;;;;5.80;99.90;;;;;;5007806;28;19967;-71
2022/11/19 08:22:41;;;;;;;;;;;5.80;99.90;;;;;;4986327;28;19929;-71
2022/11/19 08:25:08;;;;;;;;;;;5.80;99.90;;;;;;4993055;28;20509;-71
2022/11/19 08:27:35;;;;;;;;;;;5.80;99.90;;;;;;4977274;28;19933;-71
2022/11/19 08:30:02;;;;;;;;;;;5.80;99.90;;;;;;4985071;28;19944;-71
2022/11/19 08:32:29;;;;;;;;;;;5.80;99.90;;;;;;4987910;28;19933;-71
2022/11/19 08:34:56;;;;;;;;;;;5.80;99.90;;;;;;5010374;28;20638;-71
2022/11/19 08:37:22;;;;;;;;;;;5.80;99.90;;;;;;4984566;28;19972;-71
2022/11/19 08:39:51;;;;;;;;;;;5.80;99.90;;;;;;4988977;28;20446;-71
2022/11/19 08:45:02;;;;;;;;;;;5.80;99.90;;;;;;4988849;28;20366;-74
2022/11/19 08:47:29;;;;;;;;;;;5.90;99.90;;;;;;4988833;28;19929;-72
2022/11/19 08:49:56;;;;;;;;;;;5.90;99.90;;;;;;4995344;28;20059;-71
2022/11/19 08:52:23;;;;;;;;;;;5.90;99.90;;;;;;4987496;28;19956;-72
2022/11/19 08:54:52;;;;;;;;;;;5.90;99.90;;;;;;4995938;28;19929;-72
2022/11/19 08:57:19;;;;;;;;;;;5.90;99.90;;;;;;4995689;28;20422;-72
2022/11/19 08:59:45;;;;;;;;;;;5.90;99.90;;;;;;4986439;28;19965;-72
2022/11/19 09:02:12;;;;;;;;;;;5.90;99.90;;;;;;4983547;28;20325;-72
2022/11/19 09:04:40;;;;;;;;;;;5.90;99.90;;;;;;4995531;28;19949;-72
2022/11/19 09:07:07;;;;;;;;;;;5.90;99.90;;;;;;4988526;28;19926;-74
2022/11/19 09:09:34;;;;;;;;;;;5.90;99.90;;;;;;4994766;28;20568;-72
2022/11/19 09:12:02;;;;;;;;;;;5.90;99.90;;;;;;4986247;28;19980;-71
2022/11/19 09:14:29;;;;;;;;;;;5.90;99.90;;;;;;4988663;28;19933;-72
2022/11/19 09:16:56;;;;;;;;;;;5.90;99.90;;;;;;4990393;28;20359;-72
2022/11/19 09:19:23;;;;;;;;;;;6.00;99.90;;;;;;4993963;28;20008;-72
2022/11/19 09:21:49;;;;;;;;;;;5.90;99.90;;;;;;4984586;28;19957;-72
2022/11/19 09:24:16;;;;;;;;;;;5.90;99.90;;;;;;4990104;28;20555;-74
2022/11/19 09:26:43;;;;;;;;;;;6.00;99.90;;;;;;4987792;28;20368;-72
2022/11/19 09:29:11;;;;;;;;;;;6.00;99.90;;;;;;4977503;28;19926;-74
2022/11/19 09:31:38;;;;;;;;;;;6.00;99.90;;;;;;4989807;28;20027;-71
2022/11/19 09:34:05;;;;;;;;;;;6.00;99.90;;;;;;4996294;28;19956;-75
2022/11/19 09:36:31;;;;;;;;;;;6.00;99.90;;;;;;4996914;28;20020;-71
2022/11/19 09:38:58;;;;;;;;;;;6.00;99.90;;;;;;4987136;28;20082;-71
2022/11/19 09:41:42;;;;;;;;;;;6.00;99.90;;;;;;4985934;28;19963;-70
2022/11/19 09:44:18;;;;;;;;;;;6.00;99.90;;;;;;4991045;28;19925;-70
2022/11/19 09:46:50;;;;;;;;;;;6.00;99.90;;;;;;4988956;28;19929;-70
2022/11/19 09:49:21;;;;;;;;;;;6.00;99.90;;;;;;4992550;28;19926;-71
2022/11/19 09:51:53;;;;;;;;;;;6.10;99.90;;;;;;4989960;28;20003;-70
2022/11/19 09:54:21;;;;;;;;;;;6.10;99.90;;;;;;4991713;28;19988;-71
2022/11/19 09:56:49;;;;;;;;;;;6.10;99.90;;;;;;4989883;28;19926;-72
2022/11/19 09:59:21;;;;;;;;;;;6.10;99.90;;;;;;4986882;28;20401;-70
2022/11/19 10:01:48;;;;;;;;;;;6.10;99.90;;;;;;4985435;28;20032;-71
2022/11/19 10:04:16;;;;;;;;;;;6.10;99.90;;;;;;4992867;28;20021;-70
2022/11/19 10:06:47;;;;;;;;;;;6.10;99.90;;;;;;4989586;28;20405;-71
2022/11/19 10:09:20;;;;;;;;;;;6.10;99.90;;;;;;4996442;28;19925;-70
2022/11/19 10:11:52;;;;;;;;;;;6.10;99.90;;;;;;5000079;28;19960;-70
2022/11/19 10:14:29;;;;;;;;;;;6.10;99.90;;;;;;4982537;28;19937;-70
2022/11/19 10:16:58;;;;;;;;;;;6.10;99.90;;;;;;4991583;28;20458;-71
2022/11/19 10:19:32;;;;;;;;;;;6.20;99.90;;;;;;4987184;28;19947;-71
2022/11/19 10:22:04;;;;;;;;;;;6.10;99.90;;;;;;4995348;28;19933;-71
2022/11/19 10:24:41;;;;;;;;;;;6.10;99.90;;;;;;4984314;28;19933;-70
2022/11/19 10:27:13;;;;;;;;;;;6.20;99.90;;;;;;4992465;28;19929;-71
2022/11/19 10:29:41;;;;;;;;;;;6.20;99.90;;;;;;4978804;28;19925;-70
2022/11/19 10:32:17;;;;;;;;;;;6.30;99.90;;;;;;4997883;28;19926;-71
2022/11/19 10:34:45;;;;;;;;;;;6.30;99.90;;;;;;4988720;28;19926;-70
2022/11/19 10:37:15;;;;;;;;;;;6.40;99.90;;;;;;4990975;28;19971;-71
2022/11/19 10:39:44;;;;;;;;;;;6.40;99.90;;;;;;5000561;28;19936;-70
2022/11/19 10:42:16;;;;;;;;;;;6.50;99.90;;;;;;4993396;28;20008;-70
2022/11/19 10:44:49;;;;;;;;;;;6.50;99.90;;;;;;4980445;28;19941;-71
2022/11/19 10:47:18;;;;;;;;;;;6.50;99.90;;;;;;5018480;28;19925;-71
2022/11/19 10:49:45;;;;;;;;;;;6.50;99.90;;;;;;4995728;28;19929;-71
2022/11/19 10:52:17;;;;;;;;;;;6.50;99.90;;;;;;4989610;28;19934;-71
2022/11/19 10:54:46;;;;;;;;;;;6.60;99.90;;;;;;4989660;28;19957;-70
2022/11/19 10:57:14;;;;;;;;;;;6.60;99.90;;;;;;4991040;28;19930;-71
2022/11/19 10:59:41;;;;;;;;;;;6.60;99.90;;;;;;4992249;28;19973;-70
2022/11/19 11:02:18;;;;;;;;;;;6.60;99.90;;;;;;4986234;28;19925;-74
2022/11/19 11:04:59;;;;;;;;;;;6.60;99.90;;;;;;4991217;28;19984;-75
2022/11/19 11:07:44;;;;;;;;;;;6.60;99.90;;;;;;4990495;28;20076;-73
2022/11/19 11:10:23;;;;;;;;;;;6.70;99.90;;;;;;4989897;28;19933;-73
2022/11/19 11:15:35;;;;;;;;;;;6.70;99.90;;;;;;4995760;28;20456;-73
2022/11/19 11:18:04;;;;;;;;;;;6.70;99.90;;;;;;4983924;28;19933;-72
2022/11/19 11:20:32;;;;;;;;;;;6.70;99.90;;;;;;4985555;28;19983;-73
2022/11/19 11:23:05;;;;;;;;;;;6.70;99.90;;;;;;4989400;28;20030;-74
2022/11/19 11:25:32;;;;;;;;;;;6.70;99.90;;;;;;4991675;28;20954;-73
2022/11/19 11:28:04;;;;;;;;;;;6.70;99.90;;;;;;4986664;28;19933;-74
2022/11/19 11:30:31;;;;;;;;;;;6.70;99.90;;;;;;4978347;28;20003;-75
2022/11/19 11:32:58;;;;;;;;;;;6.70;99.90;;;;;;4986908;28;20020;-71
2022/11/19 11:35:30;;;;;;;;;;;6.70;99.90;;;;;;4990818;28;20455;-75
2022/11/19 11:37:57;;;;;;;;;;;6.70;99.90;;;;;;4976973;28;20384;-72
2022/11/19 11:40:24;;;;;;;;;;;6.70;99.90;;;;;;4994935;28;20028;-76
2022/11/19 11:42:51;;;;;;;;;;;6.80;99.90;;;;;;4991051;28;19956;-71
2022/11/19 11:45:21;;;;;;;;;;;6.80;99.90;;;;;;4991958;28;21428;-72
2022/11/19 11:47:48;;;;;;;;;;;6.80;99.90;;;;;;4991995;28;20016;-72
2022/11/19 11:50:17;;;;;;;;;;;6.80;99.90;;;;;;4988914;28;19983;-71
2022/11/19 11:52:47;;;;;;;;;;;6.80;99.90;;;;;;4984780;28;20028;-72
2022/11/19 11:55:15;;;;;;;;;;;6.80;99.90;;;;;;4993314;28;19933;-72
2022/11/19 11:57:52;;;;;;;;;;;6.80;99.90;;;;;;4992498;28;19934;-72
2022/11/19 12:00:33;;;;;;;;;;;6.80;99.90;;;;;;4985953;28;19933;-72
2022/11/19 12:03:01;;;;;;;;;;;6.80;99.90;;;;;;4990138;28;19933;-70
2022/11/19 12:05:29;;;;;;;;;;;6.80;99.90;;;;;;4983763;28;19925;-71
2022/11/19 12:08:02;;;;;;;;;;;6.90;99.90;;;;;;4990951;28;19926;-72
2022/11/19 12:10:32;;;;;;;;;;;6.80;99.90;;;;;;4992449;28;19932;-75
2022/11/19 12:13:07;;;;;;;;;;;6.90;99.90;;;;;;5003427;28;19926;-70
2022/11/19 12:15:42;;;;;;;;;;;6.90;99.90;;;;;;4985709;28;19937;-72
2022/11/19 12:18:16;;;;;;;;;;;6.90;99.90;;;;;;4980287;28;19925;-71
2022/11/19 12:20:46;;;;;;;;;;;6.90;99.90;;;;;;4979647;28;22009;-74
2022/11/19 12:23:23;;;;;;;;;;;6.90;99.90;;;;;;4981757;28;20031;-71
2022/11/19 12:25:58;;;;;;;;;;;6.90;99.90;;;;;;4977480;28;20222;-71
2022/11/19 12:28:34;;;;;;;;;;;6.90;99.90;;;;;;4985747;28;19949;-71
2022/11/19 12:31:07;;;;;;;;;;;6.90;99.90;;;;;;4990467;28;19953;-70
2022/11/19 12:33:49;;;;;;;;;;;6.90;99.90;;;;;;4993908;28;20367;-71
2022/11/19 12:36:19;;;;;;;;;;;7.00;99.90;;;;;;4984047;28;19933;-70
2022/11/19 12:38:51;;;;;;;;;;;7.00;99.90;;;;;;4996324;28;19933;-71
2022/11/19 12:41:29;;;;;;;;;;;7.00;99.90;;;;;;4996111;28;20319;-71
2022/11/19 12:43:57;;;;;;;;;;;7.00;99.90;;;;;;4989548;28;20391;-71
2022/11/19 12:46:31;;;;;;;;;;;7.00;99.90;;;;;;4997785;28;19931;-71
2022/11/19 12:49:08;;;;;;;;;;;7.00;99.90;;;;;;4995266;28;20112;-71
2022/11/19 12:51:40;;;;;;;;;;;7.00;99.90;;;;;;4991169;28;20072;-70
2022/11/19 12:54:15;;;;;;;;;;;7.00;99.90;;;;;;4997378;28;19980;-71
2022/11/19 12:56:45;;;;;;;;;;;7.00;99.90;;;;;;4998857;28;19972;-71
2022/11/19 12:59:21;;;;;;;;;;;7.00;99.90;;;;;;4991765;28;19944;-71
2022/11/19 13:01:50;;;;;;;;;;;7.10;99.90;;;;;;5008478;28;20029;-70
2022/11/19 13:04:20;;;;;;;;;;;7.10;99.90;;;;;;4994706;28;19932;-71
2022/11/19 13:06:51;;;;;;;;;;;7.10;99.90;;;;;;4991588;28;20100;-71
2022/11/19 13:09:31;;;;;;;;;;;7.10;99.90;;;;;;4990901;28;19985;-71
2022/11/19 13:12:01;;;;;;;;;;;7.10;99.90;;;;;;4996218;28;19925;-70
2022/11/19 13:14:30;;;;;;;;;;;7.10;99.90;;;;;;4996976;28;19925;-71
2022/11/19 13:16:58;;;;;;;;;;;7.10;99.90;;;;;;4987308;28;19988;-70
2022/11/19 13:19:28;;;;;;;;;;;7.10;99.90;;;;;;4992133;28;19972;-71
2022/11/19 13:21:56;;;;;;;;;;;7.10;99.90;;;;;;4998426;28;20028;-71
2022/11/19 13:24:32;;;;;;;;;;;7.10;99.90;;;;;;4995089;28;20519;-71
2022/11/19 13:27:02;;;;;;;;;;;7.10;99.90;;;;;;4996029;28;19961;-71
2022/11/19 13:29:33;;;;;;;;;;;7.10;99.90;;;;;;4994312;28;19984;-70
2022/11/19 13:32:01;;;;;;;;;;;7.10;99.90;;;;;;4992339;28;20293;-71
2022/11/19 13:34:33;;;;;;;;;;;7.10;99.90;;;;;;4987262;28;19930;-70
2022/11/19 13:37:02;;;;;;;;;;;7.20;99.90;;;;;;4997442;28;19984;-70
2022/11/19 13:39:32;;;;;;;;;;;7.20;99.90;;;;;;4994742;28;19926;-71
2022/11/19 13:44:45;;;;;;;;;;;7.20;99.90;;;;;;4998055;28;19930;-71
2022/11/19 13:47:15;;;;;;;;;;;7.20;99.90;;;;;;4992096;28;19984;-71
2022/11/19 13:49:43;;;;;;;;;;;7.20;99.90;;;;;;5000903;28;20049;-70
2022/11/19 13:52:13;;;;;;;;;;;7.20;99.90;;;;;;4992683;28;19926;-71
2022/11/19 13:54:40;;;;;;;;;;;7.20;99.90;;;;;;4998108;28;20399;-70
2022/11/19 13:57:22;;;;;;;;;;;7.20;99.90;;;;;;4997860;28;19926;-70
2022/11/19 13:59:49;;;;;;;;;;;7.20;99.90;;;;;;5000359;28;20473;-70
2022/11/19 14:02:34;;;;;;;;;;;7.20;99.90;;;;;;4989355;28;20033;-71
2022/11/19 14:05:16;;;;;;;;;;;7.20;99.90;;;;;;4985219;28;20403;-71
2022/11/19 14:07:55;;;;;;;;;;;7.20;99.90;;;;;;4994860;28;19969;-71
2022/11/19 14:10:24;;;;;;;;;;;7.20;99.90;;;;;;5006110;28;20311;-71
2022/11/19 14:13:08;;;;;;;;;;;7.30;99.90;;;;;;4992816;28;19937;-71
2022/11/19 14:27:16;;;;;;;;;;;7.30;99.90;;;;;;4989863;28;20112;-71
2022/11/19 14:29:55;;;;;;;;;;;7.30;99.90;;;;;;4995918;28;20076;-71
2022/11/19 14:32:33;;;;;;;;;;;7.30;99.90;;;;;;4995330;28;20852;-70
2022/11/19 14:35:18;;;;;;;;;;;7.40;99.90;;;;;;4997470;28;22018;-71
2022/11/19 14:37:46;;;;;;;;;;;7.40;99.90;;;;;;4996158;28;19941;-70
2022/11/19 14:40:15;;;;;;;;;;;7.40;99.90;;;;;;4996629;28;19944;-70
2022/11/19 14:45:38;;;;;;;;;;;7.30;99.90;;;;;;4990516;28;20408;-71
2022/11/19 14:48:05;;;;;;;;;;;7.30;99.90;;;;;;4995917;28;19957;-71
2022/11/19 14:50:33;;;;;;;;;;;7.40;99.90;;;;;;4991797;28;19925;-71
2022/11/19 14:53:01;;;;;;;;;;;7.40;99.90;;;;;;4997562;28;19933;-70
2022/11/19 14:55:28;;;;;;;;;;;7.40;99.90;;;;;;4991918;28;19926;-71
2022/11/19 14:57:58;;;;;;;;;;;7.40;99.90;;;;;;5013179;28;19934;-70
2022/11/19 15:00:32;;;;;;;;;;;7.40;99.90;;;;;;5000209;28;20099;-71
2022/11/19 15:03:00;;;;;;;;;;;7.40;99.90;;;;;;4995563;28;19930;-70
2022/11/19 15:05:28;;;;;;;;;;;7.40;99.90;;;;;;4997104;28;20394;-71
2022/11/19 15:08:12;;;;;;;;;;;7.40;99.90;;;;;;4990656;28;21432;-71
2022/11/19 15:10:50;;;;;;;;;;;7.40;99.90;;;;;;5009653;22;19947;-71
2022/11/19 15:13:23;;;;;;;;;;;7.40;99.90;;;;;;4961807;28;19945;-71
2022/11/19 15:15:52;;;;;;;;;;;7.40;99.90;;;;;;4968197;28;20399;-72
2022/11/19 15:18:43;;;;;;;;;;;7.40;99.90;;;;;;4969413;28;20315;-70
2022/11/19 15:21:20;;;;;;;;;;;7.40;99.90;;;;;;4977990;28;19973;-70
2022/11/19 15:23:53;;;;;;;;;;;7.40;99.90;;;;;;4969974;28;19933;-70
2022/11/19 15:26:23;;;;;;;;;;;7.50;99.90;;;;;;4969182;28;20029;-70
2022/11/19 15:28:59;;;;;;;;;;;7.40;99.90;;;;;;4968080;28;20432;-70